sensor_id;sensor_type;location;lat;lon;timestamp;P1;durP1;ratioP1;P2;durP2;ratioP2
75667;SDS011;64266;48.798;44.756;2023-07-29T00:04:15;4.85;;;1.67;;
75667;SDS011;64266;48.798;44.756;2023-07-29T00:09:18;5.65;;;1.70;;
75667;SDS011;64266;48.798;44.756;2023-07-29T00:14:21;3.08;;;1.65;;
75667;SDS011;64266;48.798;44.756;2023-07-29T00:19:23;4.90;;;1.50;;
75667;SDS011;64266;48.798;44.756;2023-07-29T00:24:27;4.63;;;1.50;;
75667;SDS011;64266;48.798;44.756;2023-07-29T00:29:30;5.40;;;1.35;;
75667;SDS011;64266;48.798;44.756;2023-07-29T00:34:34;4.18;;;1.40;;
75667;SDS011;64266;48.798;44.756;2023-07-29T00:39:38;3.95;;;1.23;;
75667;SDS011;64266;48.798;44.756;2023-07-29T00:44:40;3.08;;;1.10;;
75667;SDS011;64266;48.798;44.756;2023-07-29T00:49:44;5.97;;;1.20;;
75667;SDS011;64266;48.798;44.756;2023-07-29T00:54:47;5.57;;;1.30;;
75667;SDS011;64266;48.798;44.756;2023-07-29T00:59:50;2.58;;;1.20;;
75667;SDS011;64266;48.798;44.756;2023-07-29T01:04:54;4.07;;;1.20;;
75667;SDS011;64266;48.798;44.756;2023-07-29T01:10:01;3.47;;;1.23;;
75667;SDS011;64266;48.798;44.756;2023-07-29T01:15:19;3.90;;;1.25;;
75667;SDS011;64266;48.798;44.756;2023-07-29T01:20:32;1.98;;;1.10;;
75667;SDS011;64266;48.798;44.756;2023-07-29T01:25:36;3.83;;;1.30;;
75667;SDS011;64266;48.798;44.756;2023-07-29T01:30:40;2.83;;;1.10;;
75667;SDS011;64266;48.798;44.756;2023-07-29T01:35:47;2.75;;;1.20;;
75667;SDS011;64266;48.798;44.756;2023-07-29T01:40:53;5.00;;;1.60;;
75667;SDS011;64266;48.798;44.756;2023-07-29T01:45:57;4.03;;;1.20;;
75667;SDS011;64266;48.798;44.756;2023-07-29T01:51:01;4.57;;;1.40;;
75667;SDS011;64266;48.798;44.756;2023-07-29T01:56:05;4.00;;;1.30;;
75667;SDS011;64266;48.798;44.756;2023-07-29T02:01:10;5.13;;;1.30;;
75667;SDS011;64266;48.798;44.756;2023-07-29T02:06:13;5.35;;;1.45;;
75667;SDS011;64266;48.798;44.756;2023-07-29T02:11:15;3.88;;;1.80;;
75667;SDS011;64266;48.798;44.756;2023-07-29T02:16:19;4.85;;;1.60;;
75667;SDS011;64266;48.798;44.756;2023-07-29T02:21:23;5.07;;;1.70;;
75667;SDS011;64266;48.798;44.756;2023-07-29T02:26:27;4.78;;;1.70;;
75667;SDS011;64266;48.798;44.756;2023-07-29T02:31:30;4.53;;;1.80;;
75667;SDS011;64266;48.798;44.756;2023-07-29T02:36:34;6.25;;;2.38;;
75667;SDS011;64266;48.798;44.756;2023-07-29T02:46:42;9.13;;;4.57;;
75667;SDS011;64266;48.798;44.756;2023-07-29T02:51:47;9.77;;;3.65;;
75667;SDS011;64266;48.798;44.756;2023-07-29T02:56:50;7.70;;;2.60;;
75667;SDS011;64266;48.798;44.756;2023-07-29T03:01:54;8.95;;;3.67;;
75667;SDS011;64266;48.798;44.756;2023-07-29T03:06:59;6.88;;;3.03;;
75667;SDS011;64266;48.798;44.756;2023-07-29T03:12:04;8.10;;;2.70;;
75667;SDS011;64266;48.798;44.756;2023-07-29T03:17:08;6.28;;;2.30;;
75667;SDS011;64266;48.798;44.756;2023-07-29T03:22:11;7.13;;;2.28;;
75667;SDS011;64266;48.798;44.756;2023-07-29T03:27:15;8.60;;;2.63;;
75667;SDS011;64266;48.798;44.756;2023-07-29T03:32:18;6.75;;;2.55;;
75667;SDS011;64266;48.798;44.756;2023-07-29T03:37:20;9.35;;;2.20;;
75667;SDS011;64266;48.798;44.756;2023-07-29T03:42:23;5.53;;;2.20;;
75667;SDS011;64266;48.798;44.756;2023-07-29T03:47:26;6.38;;;1.83;;
75667;SDS011;64266;48.798;44.756;2023-07-29T03:52:31;5.55;;;2.50;;
75667;SDS011;64266;48.798;44.756;2023-07-29T03:57:34;7.28;;;2.85;;
75667;SDS011;64266;48.798;44.756;2023-07-29T04:02:36;6.53;;;2.63;;
75667;SDS011;64266;48.798;44.756;2023-07-29T04:07:41;9.65;;;2.72;;
75667;SDS011;64266;48.798;44.756;2023-07-29T04:12:44;8.48;;;2.50;;
75667;SDS011;64266;48.798;44.756;2023-07-29T04:17:50;6.47;;;2.03;;
75667;SDS011;64266;48.798;44.756;2023-07-29T04:22:54;6.38;;;2.10;;
75667;SDS011;64266;48.798;44.756;2023-07-29T04:27:58;8.27;;;1.88;;
75667;SDS011;64266;48.798;44.756;2023-07-29T04:33:00;5.93;;;2.10;;
75667;SDS011;64266;48.798;44.756;2023-07-29T04:38:03;76.50;;;5.93;;
75667;SDS011;64266;48.798;44.756;2023-07-29T04:43:06;4.70;;;1.73;;
75667;SDS011;64266;48.798;44.756;2023-07-29T04:48:09;6.32;;;2.35;;
75667;SDS011;64266;48.798;44.756;2023-07-29T04:53:11;10.80;;;2.47;;
75667;SDS011;64266;48.798;44.756;2023-07-29T04:58:14;5.60;;;2.00;;
75667;SDS011;64266;48.798;44.756;2023-07-29T05:03:18;6.10;;;2.20;;
75667;SDS011;64266;48.798;44.756;2023-07-29T05:08:20;6.07;;;1.33;;
75667;SDS011;64266;48.798;44.756;2023-07-29T05:13:24;7.30;;;1.35;;
75667;SDS011;64266;48.798;44.756;2023-07-29T05:18:27;6.78;;;1.58;;
75667;SDS011;64266;48.798;44.756;2023-07-29T05:23:30;4.45;;;1.25;;
75667;SDS011;64266;48.798;44.756;2023-07-29T05:28:33;5.03;;;1.40;;
75667;SDS011;64266;48.798;44.756;2023-07-29T05:33:36;4.97;;;1.50;;
75667;SDS011;64266;48.798;44.756;2023-07-29T05:38:40;6.80;;;1.58;;
75667;SDS011;64266;48.798;44.756;2023-07-29T05:43:43;6.55;;;1.40;;
75667;SDS011;64266;48.798;44.756;2023-07-29T05:48:47;3.50;;;1.35;;
75667;SDS011;64266;48.798;44.756;2023-07-29T05:53:50;4.10;;;1.50;;
75667;SDS011;64266;48.798;44.756;2023-07-29T05:58:54;3.70;;;1.30;;
75667;SDS011;64266;48.798;44.756;2023-07-29T06:03:58;4.32;;;1.50;;
75667;SDS011;64266;48.798;44.756;2023-07-29T06:09:00;4.68;;;2.10;;
75667;SDS011;64266;48.798;44.756;2023-07-29T06:14:03;6.38;;;2.22;;
75667;SDS011;64266;48.798;44.756;2023-07-29T06:19:07;3.20;;;1.73;;
75667;SDS011;64266;48.798;44.756;2023-07-29T06:24:11;4.55;;;1.33;;
75667;SDS011;64266;48.798;44.756;2023-07-29T06:29:13;5.07;;;1.58;;
75667;SDS011;64266;48.798;44.756;2023-07-29T06:34:17;7.88;;;1.80;;
75667;SDS011;64266;48.798;44.756;2023-07-29T06:39:20;4.35;;;1.75;;
75667;SDS011;64266;48.798;44.756;2023-07-29T06:44:23;7.28;;;2.00;;
75667;SDS011;64266;48.798;44.756;2023-07-29T06:49:25;6.30;;;2.00;;
75667;SDS011;64266;48.798;44.756;2023-07-29T06:54:28;4.25;;;1.90;;
75667;SDS011;64266;48.798;44.756;2023-07-29T06:59:31;4.38;;;1.92;;
75667;SDS011;64266;48.798;44.756;2023-07-29T07:04:33;5.63;;;1.90;;
75667;SDS011;64266;48.798;44.756;2023-07-29T07:09:36;5.85;;;1.80;;
75667;SDS011;64266;48.798;44.756;2023-07-29T07:14:39;5.22;;;1.45;;
75667;SDS011;64266;48.798;44.756;2023-07-29T07:19:43;5.00;;;1.98;;
75667;SDS011;64266;48.798;44.756;2023-07-29T07:24:46;2.78;;;1.50;;
75667;SDS011;64266;48.798;44.756;2023-07-29T07:29:48;5.13;;;1.63;;
75667;SDS011;64266;48.798;44.756;2023-07-29T07:34:53;4.50;;;1.80;;
75667;SDS011;64266;48.798;44.756;2023-07-29T07:39:55;4.53;;;2.35;;
75667;SDS011;64266;48.798;44.756;2023-07-29T07:44:58;5.93;;;2.75;;
75667;SDS011;64266;48.798;44.756;2023-07-29T07:50:01;5.82;;;2.80;;
75667;SDS011;64266;48.798;44.756;2023-07-29T07:55:06;6.78;;;3.28;;
75667;SDS011;64266;48.798;44.756;2023-07-29T08:00:10;7.95;;;3.70;;
75667;SDS011;64266;48.798;44.756;2023-07-29T08:05:14;7.22;;;3.78;;
75667;SDS011;64266;48.798;44.756;2023-07-29T08:10:16;7.53;;;4.35;;
75667;SDS011;64266;48.798;44.756;2023-07-29T08:15:19;73.82;;;8.52;;
75667;SDS011;64266;48.798;44.756;2023-07-29T08:20:21;31.05;;;10.63;;
75667;SDS011;64266;48.798;44.756;2023-07-29T08:25:24;16.80;;;9.02;;
75667;SDS011;64266;48.798;44.756;2023-07-29T08:30:27;12.73;;;8.07;;
75667;SDS011;64266;48.798;44.756;2023-07-29T08:35:30;11.73;;;7.65;;
75667;SDS011;64266;48.798;44.756;2023-07-29T08:40:34;9.48;;;6.40;;
75667;SDS011;64266;48.798;44.756;2023-07-29T08:45:37;8.73;;;6.22;;
75667;SDS011;64266;48.798;44.756;2023-07-29T08:50:43;9.13;;;5.78;;
75667;SDS011;64266;48.798;44.756;2023-07-29T08:55:47;9.52;;;7.40;;
75667;SDS011;64266;48.798;44.756;2023-07-29T09:00:51;13.15;;;7.57;;
75667;SDS011;64266;48.798;44.756;2023-07-29T09:05:55;20.30;;;5.32;;
75667;SDS011;64266;48.798;44.756;2023-07-29T09:16:02;10.10;;;5.25;;
75667;SDS011;64266;48.798;44.756;2023-07-29T09:21:06;10.45;;;5.70;;
75667;SDS011;64266;48.798;44.756;2023-07-29T09:26:09;6.07;;;3.97;;
75667;SDS011;64266;48.798;44.756;2023-07-29T09:31:20;7.00;;;4.93;;
75667;SDS011;64266;48.798;44.756;2023-07-29T09:36:24;8.65;;;6.82;;
75667;SDS011;64266;48.798;44.756;2023-07-29T09:41:29;9.52;;;5.75;;
75667;SDS011;64266;48.798;44.756;2023-07-29T09:46:36;32.20;;;8.98;;
75667;SDS011;64266;48.798;44.756;2023-07-29T09:51:40;17.20;;;8.20;;
75667;SDS011;64266;48.798;44.756;2023-07-29T09:56:43;15.48;;;9.23;;
75667;SDS011;64266;48.798;44.756;2023-07-29T10:01:47;11.68;;;7.90;;
75667;SDS011;64266;48.798;44.756;2023-07-29T10:06:50;10.02;;;7.15;;
75667;SDS011;64266;48.798;44.756;2023-07-29T10:11:56;10.55;;;5.68;;
75667;SDS011;64266;48.798;44.756;2023-07-29T10:17:00;8.00;;;4.30;;
75667;SDS011;64266;48.798;44.756;2023-07-29T10:22:04;7.68;;;3.67;;
75667;SDS011;64266;48.798;44.756;2023-07-29T10:27:08;4.75;;;2.00;;
75667;SDS011;64266;48.798;44.756;2023-07-29T10:37:17;6.60;;;2.78;;
75667;SDS011;64266;48.798;44.756;2023-07-29T10:42:20;6.50;;;2.75;;
75667;SDS011;64266;48.798;44.756;2023-07-29T10:47:26;4.93;;;2.03;;
75667;SDS011;64266;48.798;44.756;2023-07-29T10:52:37;5.28;;;1.70;;
75667;SDS011;64266;48.798;44.756;2023-07-29T10:57:42;5.25;;;1.98;;
75667;SDS011;64266;48.798;44.756;2023-07-29T11:02:58;5.20;;;2.35;;
75667;SDS011;64266;48.798;44.756;2023-07-29T11:08:15;8.13;;;2.80;;
75667;SDS011;64266;48.798;44.756;2023-07-29T11:13:22;8.57;;;3.45;;
75667;SDS011;64266;48.798;44.756;2023-07-29T11:18:26;7.90;;;3.20;;
75667;SDS011;64266;48.798;44.756;2023-07-29T11:23:36;7.88;;;3.78;;
75667;SDS011;64266;48.798;44.756;2023-07-29T11:28:39;6.25;;;3.53;;
75667;SDS011;64266;48.798;44.756;2023-07-29T11:33:43;6.78;;;3.08;;
75667;SDS011;64266;48.798;44.756;2023-07-29T11:38:45;7.40;;;3.17;;
75667;SDS011;64266;48.798;44.756;2023-07-29T11:43:49;7.68;;;2.72;;
75667;SDS011;64266;48.798;44.756;2023-07-29T11:48:56;8.77;;;2.88;;
75667;SDS011;64266;48.798;44.756;2023-07-29T11:53:58;6.50;;;3.60;;
75667;SDS011;64266;48.798;44.756;2023-07-29T11:59:02;8.52;;;3.08;;
75667;SDS011;64266;48.798;44.756;2023-07-29T12:04:06;4.57;;;2.42;;
75667;SDS011;64266;48.798;44.756;2023-07-29T12:09:09;6.25;;;3.38;;
75667;SDS011;64266;48.798;44.756;2023-07-29T12:14:12;7.50;;;2.17;;
75667;SDS011;64266;48.798;44.756;2023-07-29T12:19:16;4.72;;;2.30;;
75667;SDS011;64266;48.798;44.756;2023-07-29T12:24:22;10.52;;;3.40;;
75667;SDS011;64266;48.798;44.756;2023-07-29T12:29:25;5.55;;;2.53;;
75667;SDS011;64266;48.798;44.756;2023-07-29T12:34:29;7.43;;;2.70;;
75667;SDS011;64266;48.798;44.756;2023-07-29T12:39:34;5.68;;;2.30;;
75667;SDS011;64266;48.798;44.756;2023-07-29T12:44:42;7.45;;;3.10;;
75667;SDS011;64266;48.798;44.756;2023-07-29T12:49:45;7.30;;;2.45;;
75667;SDS011;64266;48.798;44.756;2023-07-29T12:54:49;5.75;;;2.35;;
75667;SDS011;64266;48.798;44.756;2023-07-29T12:59:52;7.38;;;3.20;;
75667;SDS011;64266;48.798;44.756;2023-07-29T13:04:55;6.32;;;2.65;;
75667;SDS011;64266;48.798;44.756;2023-07-29T13:09:58;10.65;;;4.18;;
75667;SDS011;64266;48.798;44.756;2023-07-29T13:15:01;9.07;;;3.45;;
75667;SDS011;64266;48.798;44.756;2023-07-29T13:20:09;8.23;;;3.10;;
75667;SDS011;64266;48.798;44.756;2023-07-29T13:25:13;18.15;;;4.85;;
75667;SDS011;64266;48.798;44.756;2023-07-29T13:30:20;10.45;;;5.32;;
75667;SDS011;64266;48.798;44.756;2023-07-29T13:35:25;8.68;;;6.07;;
75667;SDS011;64266;48.798;44.756;2023-07-29T13:40:28;10.18;;;5.95;;
75667;SDS011;64266;48.798;44.756;2023-07-29T13:45:31;10.85;;;6.60;;
75667;SDS011;64266;48.798;44.756;2023-07-29T13:50:34;9.80;;;6.40;;
75667;SDS011;64266;48.798;44.756;2023-07-29T13:55:37;8.60;;;5.70;;
75667;SDS011;64266;48.798;44.756;2023-07-29T14:00:40;8.70;;;6.05;;
75667;SDS011;64266;48.798;44.756;2023-07-29T14:05:50;9.93;;;6.32;;
75667;SDS011;64266;48.798;44.756;2023-07-29T14:10:53;6.60;;;3.95;;
75667;SDS011;64266;48.798;44.756;2023-07-29T14:15:55;7.75;;;3.25;;
75667;SDS011;64266;48.798;44.756;2023-07-29T14:20:59;4.63;;;2.90;;
75667;SDS011;64266;48.798;44.756;2023-07-29T14:26:04;5.70;;;3.03;;
75667;SDS011;64266;48.798;44.756;2023-07-29T14:31:13;4.25;;;2.40;;
75667;SDS011;64266;48.798;44.756;2023-07-29T14:36:17;4.93;;;2.63;;
75667;SDS011;64266;48.798;44.756;2023-07-29T14:41:21;6.47;;;2.70;;
75667;SDS011;64266;48.798;44.756;2023-07-29T14:46:23;6.43;;;2.72;;
75667;SDS011;64266;48.798;44.756;2023-07-29T14:51:28;4.95;;;2.58;;
75667;SDS011;64266;48.798;44.756;2023-07-29T14:56:35;3.90;;;2.25;;
75667;SDS011;64266;48.798;44.756;2023-07-29T15:01:46;7.25;;;2.40;;
75667;SDS011;64266;48.798;44.756;2023-07-29T15:06:55;7.45;;;2.05;;
75667;SDS011;64266;48.798;44.756;2023-07-29T15:12:05;12.80;;;2.20;;
75667;SDS011;64266;48.798;44.756;2023-07-29T15:17:09;4.85;;;1.67;;
75667;SDS011;64266;48.798;44.756;2023-07-29T15:22:17;3.42;;;1.50;;
75667;SDS011;64266;48.798;44.756;2023-07-29T15:27:22;2.75;;;1.52;;
75667;SDS011;64266;48.798;44.756;2023-07-29T15:32:26;4.70;;;1.92;;
75667;SDS011;64266;48.798;44.756;2023-07-29T15:37:34;4.20;;;1.63;;
75667;SDS011;64266;48.798;44.756;2023-07-29T15:43:03;5.90;;;1.50;;
75667;SDS011;64266;48.798;44.756;2023-07-29T15:48:09;5.85;;;1.73;;
75667;SDS011;64266;48.798;44.756;2023-07-29T15:53:14;9.55;;;2.13;;
75667;SDS011;64266;48.798;44.756;2023-07-29T15:58:37;4.63;;;1.42;;
75667;SDS011;64266;48.798;44.756;2023-07-29T16:03:45;5.57;;;1.75;;
75667;SDS011;64266;48.798;44.756;2023-07-29T16:08:48;3.28;;;1.52;;
75667;SDS011;64266;48.798;44.756;2023-07-29T16:13:51;2.85;;;1.55;;
75667;SDS011;64266;48.798;44.756;2023-07-29T16:18:56;3.53;;;1.80;;
75667;SDS011;64266;48.798;44.756;2023-07-29T16:24:03;4.32;;;1.80;;
75667;SDS011;64266;48.798;44.756;2023-07-29T16:29:06;3.90;;;1.85;;
75667;SDS011;64266;48.798;44.756;2023-07-29T16:34:12;4.95;;;1.60;;
75667;SDS011;64266;48.798;44.756;2023-07-29T16:39:16;4.95;;;1.80;;
75667;SDS011;64266;48.798;44.756;2023-07-29T16:44:19;5.50;;;1.40;;
75667;SDS011;64266;48.798;44.756;2023-07-29T16:49:25;4.88;;;1.48;;
75667;SDS011;64266;48.798;44.756;2023-07-29T16:54:28;3.90;;;1.35;;
75667;SDS011;64266;48.798;44.756;2023-07-29T16:59:31;9.90;;;1.52;;
75667;SDS011;64266;48.798;44.756;2023-07-29T17:04:34;4.75;;;1.60;;
75667;SDS011;64266;48.798;44.756;2023-07-29T17:09:45;3.13;;;1.48;;
75667;SDS011;64266;48.798;44.756;2023-07-29T17:14:51;4.45;;;1.10;;
75667;SDS011;64266;48.798;44.756;2023-07-29T17:19:58;3.15;;;1.02;;
75667;SDS011;64266;48.798;44.756;2023-07-29T17:25:01;3.30;;;1.00;;
75667;SDS011;64266;48.798;44.756;2023-07-29T17:30:09;2.20;;;0.82;;
75667;SDS011;64266;48.798;44.756;2023-07-29T17:35:13;3.42;;;1.00;;
75667;SDS011;64266;48.798;44.756;2023-07-29T17:40:16;4.57;;;0.98;;
75667;SDS011;64266;48.798;44.756;2023-07-29T17:45:21;4.28;;;1.00;;
75667;SDS011;64266;48.798;44.756;2023-07-29T17:50:27;5.30;;;0.93;;
75667;SDS011;64266;48.798;44.756;2023-07-29T17:55:39;4.05;;;1.10;;
75667;SDS011;64266;48.798;44.756;2023-07-29T18:00:52;4.93;;;1.05;;
75667;SDS011;64266;48.798;44.756;2023-07-29T18:05:58;3.85;;;1.05;;
75667;SDS011;64266;48.798;44.756;2023-07-29T18:11:07;4.13;;;1.30;;
75667;SDS011;64266;48.798;44.756;2023-07-29T18:16:11;4.15;;;1.10;;
75667;SDS011;64266;48.798;44.756;2023-07-29T18:21:15;3.22;;;1.20;;
75667;SDS011;64266;48.798;44.756;2023-07-29T18:26:19;4.72;;;1.27;;
75667;SDS011;64266;48.798;44.756;2023-07-29T18:31:23;3.33;;;1.25;;
75667;SDS011;64266;48.798;44.756;2023-07-29T18:36:26;4.88;;;1.98;;
75667;SDS011;64266;48.798;44.756;2023-07-29T18:41:32;6.72;;;1.55;;
75667;SDS011;64266;48.798;44.756;2023-07-29T18:46:35;2.70;;;1.35;;
75667;SDS011;64266;48.798;44.756;2023-07-29T18:51:39;7.35;;;1.67;;
75667;SDS011;64266;48.798;44.756;2023-07-29T18:56:42;4.85;;;1.50;;
75667;SDS011;64266;48.798;44.756;2023-07-29T19:01:46;3.22;;;0.93;;
75667;SDS011;64266;48.798;44.756;2023-07-29T19:06:49;1.98;;;1.08;;
75667;SDS011;64266;48.798;44.756;2023-07-29T19:12:03;3.20;;;1.20;;
75667;SDS011;64266;48.798;44.756;2023-07-29T19:17:08;3.50;;;1.40;;
75667;SDS011;64266;48.798;44.756;2023-07-29T19:27:25;4.57;;;1.40;;
75667;SDS011;64266;48.798;44.756;2023-07-29T19:33:05;3.80;;;1.33;;
75667;SDS011;64266;48.798;44.756;2023-07-29T19:38:09;2.40;;;1.13;;
75667;SDS011;64266;48.798;44.756;2023-07-29T19:43:12;2.15;;;0.80;;
75667;SDS011;64266;48.798;44.756;2023-07-29T19:48:16;6.90;;;1.33;;
75667;SDS011;64266;48.798;44.756;2023-07-29T19:53:19;4.68;;;1.00;;
75667;SDS011;64266;48.798;44.756;2023-07-29T19:58:23;4.80;;;1.40;;
75667;SDS011;64266;48.798;44.756;2023-07-29T20:03:26;3.80;;;1.10;;
75667;SDS011;64266;48.798;44.756;2023-07-29T20:08:38;4.25;;;1.30;;
75667;SDS011;64266;48.798;44.756;2023-07-29T20:13:44;3.40;;;1.23;;
75667;SDS011;64266;48.798;44.756;2023-07-29T20:18:47;5.07;;;1.40;;
75667;SDS011;64266;48.798;44.756;2023-07-29T20:23:50;2.15;;;0.90;;
75667;SDS011;64266;48.798;44.756;2023-07-29T20:28:58;1.55;;;0.70;;
75667;SDS011;64266;48.798;44.756;2023-07-29T20:34:02;3.85;;;0.90;;
75667;SDS011;64266;48.798;44.756;2023-07-29T20:39:05;4.22;;;1.00;;
75667;SDS011;64266;48.798;44.756;2023-07-29T20:49:22;7.75;;;0.93;;
75667;SDS011;64266;48.798;44.756;2023-07-29T20:54:30;4.47;;;0.68;;
75667;SDS011;64266;48.798;44.756;2023-07-29T20:59:33;2.63;;;0.73;;
75667;SDS011;64266;48.798;44.756;2023-07-29T21:04:35;2.45;;;0.70;;
75667;SDS011;64266;48.798;44.756;2023-07-29T21:09:39;3.28;;;0.90;;
75667;SDS011;64266;48.798;44.756;2023-07-29T21:14:41;2.08;;;0.70;;
75667;SDS011;64266;48.798;44.756;2023-07-29T21:19:44;2.67;;;0.60;;
75667;SDS011;64266;48.798;44.756;2023-07-29T21:24:47;1.67;;;0.75;;
75667;SDS011;64266;48.798;44.756;2023-07-29T21:29:51;3.13;;;0.70;;
75667;SDS011;64266;48.798;44.756;2023-07-29T21:34:54;2.55;;;0.90;;
75667;SDS011;64266;48.798;44.756;2023-07-29T21:40:03;3.45;;;1.10;;
75667;SDS011;64266;48.798;44.756;2023-07-29T21:45:10;3.25;;;0.88;;
75667;SDS011;64266;48.798;44.756;2023-07-29T21:50:13;4.95;;;1.10;;
75667;SDS011;64266;48.798;44.756;2023-07-29T21:55:16;3.03;;;0.90;;
75667;SDS011;64266;48.798;44.756;2023-07-29T22:00:22;6.30;;;1.13;;
75667;SDS011;64266;48.798;44.756;2023-07-29T22:05:25;3.13;;;1.08;;
75667;SDS011;64266;48.798;44.756;2023-07-29T22:10:28;2.70;;;1.08;;
75667;SDS011;64266;48.798;44.756;2023-07-29T22:15:35;4.30;;;1.25;;
75667;SDS011;64266;48.798;44.756;2023-07-29T22:20:38;2.90;;;1.10;;
75667;SDS011;64266;48.798;44.756;2023-07-29T22:25:54;3.42;;;1.20;;
75667;SDS011;64266;48.798;44.756;2023-07-29T22:31:08;3.28;;;1.13;;
75667;SDS011;64266;48.798;44.756;2023-07-29T22:36:14;2.22;;;1.17;;
75667;SDS011;64266;48.798;44.756;2023-07-29T22:41:17;2.75;;;1.15;;
75667;SDS011;64266;48.798;44.756;2023-07-29T22:46:20;4.00;;;1.08;;
75667;SDS011;64266;48.798;44.756;2023-07-29T22:51:23;4.03;;;1.13;;
75667;SDS011;64266;48.798;44.756;2023-07-29T22:56:27;3.40;;;1.30;;
75667;SDS011;64266;48.798;44.756;2023-07-29T23:01:31;3.20;;;0.95;;
75667;SDS011;64266;48.798;44.756;2023-07-29T23:06:33;6.40;;;1.45;;
75667;SDS011;64266;48.798;44.756;2023-07-29T23:11:36;5.60;;;1.35;;
75667;SDS011;64266;48.798;44.756;2023-07-29T23:16:40;4.35;;;1.17;;
75667;SDS011;64266;48.798;44.756;2023-07-29T23:21:43;3.58;;;1.80;;
75667;SDS011;64266;48.798;44.756;2023-07-29T23:26:51;2.83;;;1.00;;
75667;SDS011;64266;48.798;44.756;2023-07-29T23:31:57;2.97;;;1.27;;
75667;SDS011;64266;48.798;44.756;2023-07-29T23:37:00;3.85;;;1.10;;
75667;SDS011;64266;48.798;44.756;2023-07-29T23:42:06;3.00;;;1.83;;
75667;SDS011;64266;48.798;44.756;2023-07-29T23:47:09;3.58;;;0.95;;
75667;SDS011;64266;48.798;44.756;2023-07-29T23:52:14;3.63;;;1.23;;
75667;SDS011;64266;48.798;44.756;2023-07-29T23:57:16;3.47;;;1.10;;
